sensor_id;sensor_type;location;lat;lon;timestamp;pressure;altitude;pressure_sealevel;temperature;humidity
4012;BME280;2020;48.682;9.024;2022-07-06T00:01:42;97010.59;;;17.50;53.53
4012;BME280;2020;48.682;9.024;2022-07-06T00:04:07;97000.28;;;17.34;53.94
4012;BME280;2020;48.682;9.024;2022-07-06T00:06:32;97007.91;;;17.29;55.24
4012;BME280;2020;48.682;9.024;2022-07-06T00:08:58;97003.97;;;17.03;54.90
4012;BME280;2020;48.682;9.024;2022-07-06T00:11:23;97004.66;;;17.27;54.18
4012;BME280;2020;48.682;9.024;2022-07-06T00:13:49;97001.03;;;17.28;54.37
4012;BME280;2020;48.682;9.024;2022-07-06T00:16:15;96998.50;;;17.19;54.62
4012;BME280;2020;48.682;9.024;2022-07-06T00:18:40;96998.59;;;17.26;54.70
4012;BME280;2020;48.682;9.024;2022-07-06T00:21:05;96996.13;;;17.24;54.04
4012;BME280;2020;48.682;9.024;2022-07-06T00:23:30;96996.50;;;17.21;54.06
4012;BME280;2020;48.682;9.024;2022-07-06T00:25:56;96993.25;;;17.19;54.54
4012;BME280;2020;48.682;9.024;2022-07-06T00:28:21;97003.78;;;17.19;53.85
4012;BME280;2020;48.682;9.024;2022-07-06T00:30:47;96997.97;;;17.09;54.38
4012;BME280;2020;48.682;9.024;2022-07-06T00:33:12;96996.25;;;17.16;53.84
4012;BME280;2020;48.682;9.024;2022-07-06T00:35:37;97001.88;;;17.13;54.27
4012;BME280;2020;48.682;9.024;2022-07-06T00:38:02;97000.50;;;17.17;53.87
4012;BME280;2020;48.682;9.024;2022-07-06T00:40:28;97000.25;;;17.12;53.85
4012;BME280;2020;48.682;9.024;2022-07-06T00:42:55;97003.34;;;17.01;54.33
4012;BME280;2020;48.682;9.024;2022-07-06T00:45:20;97000.72;;;17.01;54.89
4012;BME280;2020;48.682;9.024;2022-07-06T00:47:45;97001.78;;;16.91;54.88
4012;BME280;2020;48.682;9.024;2022-07-06T00:50:13;96999.31;;;16.90;54.85
4012;BME280;2020;48.682;9.024;2022-07-06T00:53:16;96998.41;;;16.83;55.36
4012;BME280;2020;48.682;9.024;2022-07-06T00:55:37;97000.94;;;16.91;55.10
4012;BME280;2020;48.682;9.024;2022-07-06T00:58:05;97001.69;;;16.85;54.60
4012;BME280;2020;48.682;9.024;2022-07-06T01:00:31;96994.00;;;16.83;54.54
4012;BME280;2020;48.682;9.024;2022-07-06T01:02:57;96997.81;;;16.65;55.42
4012;BME280;2020;48.682;9.024;2022-07-06T01:05:23;96994.53;;;16.63;55.18
4012;BME280;2020;48.682;9.024;2022-07-06T01:07:50;96996.63;;;16.68;54.99
4012;BME280;2020;48.682;9.024;2022-07-06T01:10:17;96989.00;;;16.73;54.46
4012;BME280;2020;48.682;9.024;2022-07-06T01:12:44;96995.09;;;16.74;54.45
4012;BME280;2020;48.682;9.024;2022-07-06T01:15:13;96991.81;;;16.72;53.87
4012;BME280;2020;48.682;9.024;2022-07-06T01:17:40;96993.53;;;16.64;54.42
4012;BME280;2020;48.682;9.024;2022-07-06T01:22:35;96995.25;;;16.42;54.72
4012;BME280;2020;48.682;9.024;2022-07-06T01:25:00;96998.66;;;16.43;55.36
4012;BME280;2020;48.682;9.024;2022-07-06T01:27:25;96983.28;;;16.40;54.82
4012;BME280;2020;48.682;9.024;2022-07-06T01:29:51;96982.91;;;16.43;54.68
4012;BME280;2020;48.682;9.024;2022-07-06T01:32:16;96989.06;;;16.50;54.33
4012;BME280;2020;48.682;9.024;2022-07-06T01:34:41;96985.81;;;16.48;54.38
4012;BME280;2020;48.682;9.024;2022-07-06T01:37:06;96984.09;;;16.40;54.62
4012;BME280;2020;48.682;9.024;2022-07-06T01:39:32;96978.56;;;16.50;54.32
4012;BME280;2020;48.682;9.024;2022-07-06T01:41:57;96978.00;;;16.40;54.49
4012;BME280;2020;48.682;9.024;2022-07-06T01:44:22;96984.91;;;16.41;54.41
4012;BME280;2020;48.682;9.024;2022-07-06T01:46:47;96983.63;;;16.36;54.04
4012;BME280;2020;48.682;9.024;2022-07-06T01:49:13;96982.06;;;16.27;54.57
4012;BME280;2020;48.682;9.024;2022-07-06T01:51:38;96983.91;;;16.27;54.54
4012;BME280;2020;48.682;9.024;2022-07-06T01:54:03;96977.47;;;16.29;54.81
4012;BME280;2020;48.682;9.024;2022-07-06T01:56:28;96983.44;;;16.23;55.07
4012;BME280;2020;48.682;9.024;2022-07-06T01:58:54;96991.03;;;16.18;55.26
4012;BME280;2020;48.682;9.024;2022-07-06T02:01:20;96993.66;;;16.18;55.19
4012;BME280;2020;48.682;9.024;2022-07-06T02:03:46;96993.63;;;16.03;55.66
4012;BME280;2020;48.682;9.024;2022-07-06T02:06:11;96992.09;;;16.08;55.21
4012;BME280;2020;48.682;9.024;2022-07-06T02:08:38;96992.66;;;16.04;55.86
4012;BME280;2020;48.682;9.024;2022-07-06T02:11:04;96994.44;;;16.03;55.32
4012;BME280;2020;48.682;9.024;2022-07-06T02:13:30;96988.63;;;15.93;55.39
4012;BME280;2020;48.682;9.024;2022-07-06T02:15:55;96987.56;;;16.02;55.25
4012;BME280;2020;48.682;9.024;2022-07-06T02:18:20;96985.91;;;16.01;55.50
4012;BME280;2020;48.682;9.024;2022-07-06T02:20:46;96989.25;;;15.95;55.91
4012;BME280;2020;48.682;9.024;2022-07-06T02:23:11;96994.53;;;15.87;56.35
4012;BME280;2020;48.682;9.024;2022-07-06T02:25:37;96994.88;;;15.84;55.48
4012;BME280;2020;48.682;9.024;2022-07-06T02:28:02;97001.78;;;15.85;55.98
4012;BME280;2020;48.682;9.024;2022-07-06T02:30:28;96996.19;;;15.88;56.47
4012;BME280;2020;48.682;9.024;2022-07-06T02:32:53;96992.91;;;15.86;55.88
4012;BME280;2020;48.682;9.024;2022-07-06T02:35:18;96997.56;;;15.75;55.71
4012;BME280;2020;48.682;9.024;2022-07-06T02:37:43;97002.00;;;15.75;56.05
4012;BME280;2020;48.682;9.024;2022-07-06T02:40:09;97006.78;;;15.71;56.24
4012;BME280;2020;48.682;9.024;2022-07-06T02:42:35;97005.09;;;15.78;56.50
4012;BME280;2020;48.682;9.024;2022-07-06T02:45:00;97006.09;;;15.77;56.27
4012;BME280;2020;48.682;9.024;2022-07-06T02:47:25;97008.78;;;15.69;56.87
4012;BME280;2020;48.682;9.024;2022-07-06T02:49:51;97011.91;;;15.64;57.02
4012;BME280;2020;48.682;9.024;2022-07-06T02:52:17;97016.81;;;15.68;56.89
4012;BME280;2020;48.682;9.024;2022-07-06T02:54:42;97013.13;;;15.54;57.40
4012;BME280;2020;48.682;9.024;2022-07-06T02:57:08;97018.84;;;15.57;57.01
4012;BME280;2020;48.682;9.024;2022-07-06T02:59:33;97012.16;;;15.55;57.52
4012;BME280;2020;48.682;9.024;2022-07-06T03:01:58;97021.47;;;15.57;57.85
4012;BME280;2020;48.682;9.024;2022-07-06T03:04:23;97014.81;;;15.46;57.89
4012;BME280;2020;48.682;9.024;2022-07-06T03:06:49;97022.03;;;15.44;58.26
4012;BME280;2020;48.682;9.024;2022-07-06T03:09:14;97018.81;;;15.34;58.59
4012;BME280;2020;48.682;9.024;2022-07-06T03:11:39;97031.94;;;15.34;59.28
4012;BME280;2020;48.682;9.024;2022-07-06T03:14:05;97021.56;;;15.41;58.90
4012;BME280;2020;48.682;9.024;2022-07-06T03:16:31;97032.75;;;15.34;58.92
4012;BME280;2020;48.682;9.024;2022-07-06T03:18:57;97037.53;;;15.31;59.05
4012;BME280;2020;48.682;9.024;2022-07-06T03:21:23;97022.69;;;15.15;59.36
4012;BME280;2020;48.682;9.024;2022-07-06T03:23:49;97036.88;;;15.20;59.78
4012;BME280;2020;48.682;9.024;2022-07-06T03:26:14;97029.34;;;15.26;59.74
4012;BME280;2020;48.682;9.024;2022-07-06T03:28:39;97029.75;;;15.06;60.60
4012;BME280;2020;48.682;9.024;2022-07-06T03:31:04;97029.13;;;14.96;60.82
4012;BME280;2020;48.682;9.024;2022-07-06T03:33:30;97037.63;;;14.98;60.72
4012;BME280;2020;48.682;9.024;2022-07-06T03:35:55;97035.31;;;15.03;60.71
4012;BME280;2020;48.682;9.024;2022-07-06T03:38:20;97028.44;;;15.02;61.07
4012;BME280;2020;48.682;9.024;2022-07-06T03:40:45;97029.09;;;15.04;61.12
4012;BME280;2020;48.682;9.024;2022-07-06T03:43:11;97023.84;;;15.04;61.09
4012;BME280;2020;48.682;9.024;2022-07-06T03:45:36;97025.78;;;15.10;60.93
4012;BME280;2020;48.682;9.024;2022-07-06T03:48:01;97026.13;;;15.07;61.10
4012;BME280;2020;48.682;9.024;2022-07-06T03:50:27;97018.31;;;14.99;61.54
4012;BME280;2020;48.682;9.024;2022-07-06T03:52:52;97029.44;;;15.01;61.71
4012;BME280;2020;48.682;9.024;2022-07-06T03:55:17;97020.78;;;15.00;61.51
4012;BME280;2020;48.682;9.024;2022-07-06T03:57:42;97029.78;;;14.98;61.42
4012;BME280;2020;48.682;9.024;2022-07-06T04:00:09;97036.00;;;14.97;61.55
4012;BME280;2020;48.682;9.024;2022-07-06T04:02:34;97033.94;;;14.84;62.14
4012;BME280;2020;48.682;9.024;2022-07-06T04:05:00;97034.38;;;14.96;62.10
4012;BME280;2020;48.682;9.024;2022-07-06T04:07:25;97038.59;;;15.05;61.76
4012;BME280;2020;48.682;9.024;2022-07-06T04:09:51;97033.69;;;15.02;62.03
4012;BME280;2020;48.682;9.024;2022-07-06T04:12:16;97037.94;;;15.03;61.50
4012;BME280;2020;48.682;9.024;2022-07-06T04:14:42;97035.66;;;15.00;62.43
4012;BME280;2020;48.682;9.024;2022-07-06T04:17:07;97046.81;;;14.94;62.35
4012;BME280;2020;48.682;9.024;2022-07-06T04:19:51;97043.25;;;14.86;62.94
4012;BME280;2020;48.682;9.024;2022-07-06T04:22:22;97043.28;;;14.78;62.90
4012;BME280;2020;48.682;9.024;2022-07-06T04:24:47;97049.13;;;14.88;62.74
4012;BME280;2020;48.682;9.024;2022-07-06T04:27:12;97048.66;;;14.85;62.79
4012;BME280;2020;48.682;9.024;2022-07-06T04:29:37;97054.25;;;14.82;63.06
4012;BME280;2020;48.682;9.024;2022-07-06T04:32:03;97039.00;;;14.85;62.98
4012;BME280;2020;48.682;9.024;2022-07-06T04:34:28;97046.03;;;14.93;63.24
4012;BME280;2020;48.682;9.024;2022-07-06T04:36:53;97049.78;;;14.90;63.48
4012;BME280;2020;48.682;9.024;2022-07-06T04:39:19;97056.50;;;14.93;62.98
4012;BME280;2020;48.682;9.024;2022-07-06T04:41:44;97052.69;;;15.04;63.41
4012;BME280;2020;48.682;9.024;2022-07-06T04:44:09;97053.97;;;15.08;63.09
4012;BME280;2020;48.682;9.024;2022-07-06T04:46:35;97055.97;;;15.06;63.59
4012;BME280;2020;48.682;9.024;2022-07-06T04:49:00;97060.19;;;15.15;62.33
4012;BME280;2020;48.682;9.024;2022-07-06T04:51:25;97062.16;;;15.13;63.15
4012;BME280;2020;48.682;9.024;2022-07-06T04:53:51;97059.19;;;15.16;63.32
4012;BME280;2020;48.682;9.024;2022-07-06T04:56:16;97056.56;;;15.16;63.44
4012;BME280;2020;48.682;9.024;2022-07-06T04:58:41;97061.13;;;15.23;63.20
4012;BME280;2020;48.682;9.024;2022-07-06T05:01:07;97057.88;;;15.20;63.37
4012;BME280;2020;48.682;9.024;2022-07-06T05:03:33;97055.25;;;15.29;63.16
4012;BME280;2020;48.682;9.024;2022-07-06T05:06:00;97055.88;;;15.23;63.43
4012;BME280;2020;48.682;9.024;2022-07-06T05:08:25;97063.09;;;15.20;63.14
4012;BME280;2020;48.682;9.024;2022-07-06T05:10:50;97067.69;;;15.18;63.63
4012;BME280;2020;48.682;9.024;2022-07-06T05:13:17;97063.47;;;15.09;63.50
4012;BME280;2020;48.682;9.024;2022-07-06T05:15:42;97072.78;;;15.20;63.99
4012;BME280;2020;48.682;9.024;2022-07-06T05:18:07;97075.56;;;15.18;63.80
4012;BME280;2020;48.682;9.024;2022-07-06T05:20:32;97074.91;;;15.25;63.83
4012;BME280;2020;48.682;9.024;2022-07-06T05:22:58;97062.78;;;15.24;63.51
4012;BME280;2020;48.682;9.024;2022-07-06T05:25:23;97067.66;;;15.35;63.81
4012;BME280;2020;48.682;9.024;2022-07-06T05:27:48;97071.56;;;15.39;63.17
4012;BME280;2020;48.682;9.024;2022-07-06T05:30:13;97066.34;;;15.39;63.06
4012;BME280;2020;48.682;9.024;2022-07-06T05:32:40;97074.41;;;15.61;62.88
4012;BME280;2020;48.682;9.024;2022-07-06T05:35:06;97077.44;;;15.49;62.57
4012;BME280;2020;48.682;9.024;2022-07-06T05:37:32;97074.28;;;15.54;62.89
4012;BME280;2020;48.682;9.024;2022-07-06T05:39:57;97070.13;;;15.68;62.46
4012;BME280;2020;48.682;9.024;2022-07-06T05:42:22;97074.31;;;15.77;62.59
4012;BME280;2020;48.682;9.024;2022-07-06T05:44:48;97076.31;;;15.75;61.85
4012;BME280;2020;48.682;9.024;2022-07-06T05:47:13;97072.25;;;15.96;61.50
4012;BME280;2020;48.682;9.024;2022-07-06T05:49:57;97071.91;;;15.99;61.28
4012;BME280;2020;48.682;9.024;2022-07-06T05:52:38;97070.75;;;16.02;61.17
4012;BME280;2020;48.682;9.024;2022-07-06T05:55:04;97074.47;;;16.07;61.36
4012;BME280;2020;48.682;9.024;2022-07-06T05:57:30;97075.19;;;16.01;60.93
4012;BME280;2020;48.682;9.024;2022-07-06T05:59:55;97076.81;;;16.02;61.22
4012;BME280;2020;48.682;9.024;2022-07-06T06:02:20;97080.53;;;16.31;61.58
4012;BME280;2020;48.682;9.024;2022-07-06T06:04:45;97078.75;;;16.47;59.92
4012;BME280;2020;48.682;9.024;2022-07-06T06:07:11;97079.34;;;16.72;59.57
4012;BME280;2020;48.682;9.024;2022-07-06T06:09:36;97076.84;;;16.79;58.87
4012;BME280;2020;48.682;9.024;2022-07-06T06:12:01;97084.63;;;16.87;59.07
4012;BME280;2020;48.682;9.024;2022-07-06T06:14:27;97093.38;;;17.03;58.76
4012;BME280;2020;48.682;9.024;2022-07-06T06:16:52;97088.66;;;17.13;58.57
4012;BME280;2020;48.682;9.024;2022-07-06T06:19:17;97096.81;;;17.18;57.79
4012;BME280;2020;48.682;9.024;2022-07-06T06:21:42;97092.94;;;17.29;57.95
4012;BME280;2020;48.682;9.024;2022-07-06T06:24:08;97097.34;;;17.29;58.33
4012;BME280;2020;48.682;9.024;2022-07-06T06:26:33;97085.75;;;17.38;57.33
4012;BME280;2020;48.682;9.024;2022-07-06T06:28:58;97092.25;;;17.42;57.21
4012;BME280;2020;48.682;9.024;2022-07-06T06:31:23;97091.53;;;17.48;56.69
4012;BME280;2020;48.682;9.024;2022-07-06T06:33:49;97095.50;;;17.59;56.82
4012;BME280;2020;48.682;9.024;2022-07-06T06:36:14;97097.09;;;17.75;56.61
4012;BME280;2020;48.682;9.024;2022-07-06T06:38:39;97099.63;;;17.83;55.65
4012;BME280;2020;48.682;9.024;2022-07-06T06:41:05;97092.34;;;17.86;55.82
4012;BME280;2020;48.682;9.024;2022-07-06T06:43:30;97096.44;;;18.03;54.95
4012;BME280;2020;48.682;9.024;2022-07-06T06:45:55;97094.66;;;18.10;54.90
4012;BME280;2020;48.682;9.024;2022-07-06T06:48:21;97096.34;;;18.18;55.16
4012;BME280;2020;48.682;9.024;2022-07-06T06:50:46;97098.56;;;18.36;54.50
4012;BME280;2020;48.682;9.024;2022-07-06T06:53:11;97094.47;;;18.34;54.29
4012;BME280;2020;48.682;9.024;2022-07-06T06:55:37;97096.28;;;18.33;54.47
4012;BME280;2020;48.682;9.024;2022-07-06T06:58:02;97098.69;;;18.06;54.99
4012;BME280;2020;48.682;9.024;2022-07-06T07:00:27;97104.06;;;17.83;55.48
4012;BME280;2020;48.682;9.024;2022-07-06T07:02:53;97095.84;;;17.71;55.42
4012;BME280;2020;48.682;9.024;2022-07-06T07:05:18;97098.22;;;17.66;54.97
4012;BME280;2020;48.682;9.024;2022-07-06T07:07:43;97096.56;;;17.65;55.47
4012;BME280;2020;48.682;9.024;2022-07-06T07:10:09;97093.97;;;17.87;54.24
4012;BME280;2020;48.682;9.024;2022-07-06T07:12:34;97097.78;;;17.62;54.47
4012;BME280;2020;48.682;9.024;2022-07-06T07:15:00;97097.16;;;17.60;54.72
4012;BME280;2020;48.682;9.024;2022-07-06T07:17:26;97098.53;;;17.41;55.59
4012;BME280;2020;48.682;9.024;2022-07-06T07:19:51;97088.19;;;17.76;54.32
4012;BME280;2020;48.682;9.024;2022-07-06T07:22:17;97090.03;;;18.12;53.89
4012;BME280;2020;48.682;9.024;2022-07-06T07:24:42;97088.91;;;18.50;53.43
4012;BME280;2020;48.682;9.024;2022-07-06T07:27:07;97089.84;;;18.64;52.66
4012;BME280;2020;48.682;9.024;2022-07-06T07:29:32;97085.13;;;18.88;51.50
4012;BME280;2020;48.682;9.024;2022-07-06T07:31:58;97081.59;;;19.03;51.09
4012;BME280;2020;48.682;9.024;2022-07-06T07:34:23;97093.16;;;19.02;51.53
4012;BME280;2020;48.682;9.024;2022-07-06T07:36:48;97086.81;;;19.24;50.83
4012;BME280;2020;48.682;9.024;2022-07-06T07:39:14;97090.59;;;19.15;50.54
4012;BME280;2020;48.682;9.024;2022-07-06T07:41:39;97089.91;;;19.35;51.11
4012;BME280;2020;48.682;9.024;2022-07-06T07:44:04;97090.34;;;19.45;51.30
4012;BME280;2020;48.682;9.024;2022-07-06T07:46:29;97080.44;;;19.54;50.20
4012;BME280;2020;48.682;9.024;2022-07-06T07:48:55;97071.38;;;19.83;50.57
4012;BME280;2020;48.682;9.024;2022-07-06T07:51:20;97081.94;;;19.83;49.33
4012;BME280;2020;48.682;9.024;2022-07-06T07:53:46;97068.94;;;19.88;49.37
4012;BME280;2020;48.682;9.024;2022-07-06T07:56:11;97076.34;;;20.13;48.33
4012;BME280;2020;48.682;9.024;2022-07-06T07:58:37;97079.19;;;20.32;49.23
4012;BME280;2020;48.682;9.024;2022-07-06T08:01:02;97075.56;;;20.60;47.64
4012;BME280;2020;48.682;9.024;2022-07-06T08:03:29;97072.31;;;20.58;47.44
4012;BME280;2020;48.682;9.024;2022-07-06T08:05:54;97068.63;;;20.59;46.63
4012;BME280;2020;48.682;9.024;2022-07-06T08:08:19;97071.47;;;20.64;47.36
4012;BME280;2020;48.682;9.024;2022-07-06T08:10:45;97078.78;;;20.82;47.53
4012;BME280;2020;48.682;9.024;2022-07-06T08:13:10;97076.38;;;20.81;46.96
4012;BME280;2020;48.682;9.024;2022-07-06T08:15:36;97074.69;;;21.07;45.74
4012;BME280;2020;48.682;9.024;2022-07-06T08:18:01;97081.63;;;20.94;46.67
4012;BME280;2020;48.682;9.024;2022-07-06T08:20:26;97079.81;;;20.88;46.30
4012;BME280;2020;48.682;9.024;2022-07-06T08:22:52;97078.59;;;20.84;46.11
4012;BME280;2020;48.682;9.024;2022-07-06T08:25:17;97069.41;;;21.07;45.50
4012;BME280;2020;48.682;9.024;2022-07-06T08:27:43;97070.19;;;21.14;45.63
4012;BME280;2020;48.682;9.024;2022-07-06T08:30:09;97068.78;;;21.64;46.31
4012;BME280;2020;48.682;9.024;2022-07-06T08:32:41;97071.19;;;21.72;46.81
4012;BME280;2020;48.682;9.024;2022-07-06T08:35:08;97068.38;;;21.67;45.75
4012;BME280;2020;48.682;9.024;2022-07-06T08:37:33;97065.91;;;21.72;43.72
4012;BME280;2020;48.682;9.024;2022-07-06T08:39:58;97072.84;;;21.14;44.41
4012;BME280;2020;48.682;9.024;2022-07-06T08:42:29;97083.56;;;21.32;43.62
4012;BME280;2020;48.682;9.024;2022-07-06T08:44:55;97079.25;;;21.45;43.91
4012;BME280;2020;48.682;9.024;2022-07-06T08:47:25;97070.81;;;21.61;43.67
4012;BME280;2020;48.682;9.024;2022-07-06T08:49:51;97082.13;;;21.82;43.76
4012;BME280;2020;48.682;9.024;2022-07-06T08:52:16;97086.53;;;22.02;42.49
4012;BME280;2020;48.682;9.024;2022-07-06T08:54:42;97071.72;;;22.19;41.60
4012;BME280;2020;48.682;9.024;2022-07-06T08:57:08;97069.34;;;22.11;42.16
4012;BME280;2020;48.682;9.024;2022-07-06T08:59:34;97076.19;;;21.94;44.63
4012;BME280;2020;48.682;9.024;2022-07-06T09:02:00;97070.66;;;22.27;42.74
4012;BME280;2020;48.682;9.024;2022-07-06T09:04:26;97079.84;;;22.25;42.15
4012;BME280;2020;48.682;9.024;2022-07-06T09:06:52;97076.88;;;22.40;41.21
4012;BME280;2020;48.682;9.024;2022-07-06T09:09:20;97081.34;;;22.46;41.49
4012;BME280;2020;48.682;9.024;2022-07-06T09:11:49;97077.25;;;22.43;41.74
4012;BME280;2020;48.682;9.024;2022-07-06T09:14:17;97079.91;;;22.43;40.59
4012;BME280;2020;48.682;9.024;2022-07-06T09:16:44;97080.31;;;22.72;40.63
4012;BME280;2020;48.682;9.024;2022-07-06T09:19:11;97085.28;;;23.06;41.31
4012;BME280;2020;48.682;9.024;2022-07-06T09:21:36;97079.81;;;23.26;40.66
4012;BME280;2020;48.682;9.024;2022-07-06T09:24:06;97083.63;;;23.49;38.66
4012;BME280;2020;48.682;9.024;2022-07-06T09:26:31;97087.41;;;23.72;38.35
4012;BME280;2020;48.682;9.024;2022-07-06T09:28:57;97092.78;;;23.34;39.69
4012;BME280;2020;48.682;9.024;2022-07-06T09:31:24;97089.84;;;23.24;39.53
4012;BME280;2020;48.682;9.024;2022-07-06T09:34:08;97091.38;;;22.88;41.07
4012;BME280;2020;48.682;9.024;2022-07-06T09:36:37;97090.84;;;23.23;40.82
4012;BME280;2020;48.682;9.024;2022-07-06T09:39:27;97100.22;;;22.82;40.52
4012;BME280;2020;48.682;9.024;2022-07-06T09:41:54;97095.09;;;22.61;41.55
4012;BME280;2020;48.682;9.024;2022-07-06T09:44:25;97095.31;;;22.60;42.36
4012;BME280;2020;48.682;9.024;2022-07-06T09:46:52;97105.69;;;23.05;42.52
4012;BME280;2020;48.682;9.024;2022-07-06T09:49:20;97102.75;;;23.14;41.32
4012;BME280;2020;48.682;9.024;2022-07-06T09:51:47;97100.81;;;23.28;41.15
4012;BME280;2020;48.682;9.024;2022-07-06T09:54:14;97099.72;;;23.35;41.16
4012;BME280;2020;48.682;9.024;2022-07-06T09:56:40;97102.59;;;23.08;41.58
4012;BME280;2020;48.682;9.024;2022-07-06T09:59:10;97103.13;;;23.24;41.54
4012;BME280;2020;48.682;9.024;2022-07-06T10:01:37;97098.16;;;23.46;41.22
4012;BME280;2020;48.682;9.024;2022-07-06T10:04:03;97102.13;;;24.05;39.71
4012;BME280;2020;48.682;9.024;2022-07-06T10:06:29;97108.97;;;24.13;39.07
4012;BME280;2020;48.682;9.024;2022-07-06T10:08:55;97104.00;;;24.16;38.49
4012;BME280;2020;48.682;9.024;2022-07-06T10:11:23;97102.94;;;24.05;39.56
4012;BME280;2020;48.682;9.024;2022-07-06T10:13:50;97115.44;;;23.86;39.18
4012;BME280;2020;48.682;9.024;2022-07-06T10:16:20;97111.19;;;23.66;40.09
4012;BME280;2020;48.682;9.024;2022-07-06T10:18:46;97107.66;;;23.54;40.19
4012;BME280;2020;48.682;9.024;2022-07-06T10:21:12;97116.84;;;22.96;41.72
4012;BME280;2020;48.682;9.024;2022-07-06T10:23:38;97118.81;;;23.00;42.36
4012;BME280;2020;48.682;9.024;2022-07-06T10:26:05;97115.94;;;23.27;42.88
4012;BME280;2020;48.682;9.024;2022-07-06T10:28:31;97108.13;;;23.51;41.89
4012;BME280;2020;48.682;9.024;2022-07-06T10:30:56;97106.06;;;23.53;42.01
4012;BME280;2020;48.682;9.024;2022-07-06T10:33:22;97115.78;;;23.22;42.19
4012;BME280;2020;48.682;9.024;2022-07-06T10:35:49;97114.19;;;22.70;42.17
4012;BME280;2020;48.682;9.024;2022-07-06T10:38:14;97112.03;;;22.86;43.09
4012;BME280;2020;48.682;9.024;2022-07-06T10:40:41;97124.88;;;23.07;42.71
4012;BME280;2020;48.682;9.024;2022-07-06T10:43:44;97112.47;;;23.01;42.24
4012;BME280;2020;48.682;9.024;2022-07-06T10:46:14;97115.13;;;23.01;41.49
4012;BME280;2020;48.682;9.024;2022-07-06T10:48:41;97118.50;;;22.90;42.79
4012;BME280;2020;48.682;9.024;2022-07-06T10:51:07;97117.63;;;22.96;42.85
4012;BME280;2020;48.682;9.024;2022-07-06T10:53:35;97103.41;;;23.34;42.77
4012;BME280;2020;48.682;9.024;2022-07-06T10:56:05;97111.22;;;23.29;42.68
4012;BME280;2020;48.682;9.024;2022-07-06T10:58:50;97108.22;;;23.00;43.27
4012;BME280;2020;48.682;9.024;2022-07-06T11:01:18;97110.66;;;22.51;43.04
4012;BME280;2020;48.682;9.024;2022-07-06T11:08:57;97105.53;;;22.82;43.91
4012;BME280;2020;48.682;9.024;2022-07-06T11:11:23;97097.84;;;22.73;44.68
4012;BME280;2020;48.682;9.024;2022-07-06T11:13:58;97105.97;;;22.78;44.29
4012;BME280;2020;48.682;9.024;2022-07-06T11:16:28;97106.84;;;23.16;43.56
4012;BME280;2020;48.682;9.024;2022-07-06T11:21:41;97104.34;;;21.81;46.21
4012;BME280;2020;48.682;9.024;2022-07-06T11:24:11;97102.44;;;21.50;46.27
4012;BME280;2020;48.682;9.024;2022-07-06T11:26:36;97107.31;;;22.05;46.17
4012;BME280;2020;48.682;9.024;2022-07-06T11:29:06;97106.78;;;22.22;44.80
4012;BME280;2020;48.682;9.024;2022-07-06T11:31:34;97089.44;;;22.51;44.29
4012;BME280;2020;48.682;9.024;2022-07-06T11:34:00;97092.47;;;22.61;43.58
4012;BME280;2020;48.682;9.024;2022-07-06T11:36:25;97099.53;;;22.68;43.83
4012;BME280;2020;48.682;9.024;2022-07-06T11:38:51;97099.50;;;23.12;43.88
4012;BME280;2020;48.682;9.024;2022-07-06T11:41:17;97092.06;;;23.20;43.75
4012;BME280;2020;48.682;9.024;2022-07-06T11:43:43;97089.72;;;22.68;43.47
4012;BME280;2020;48.682;9.024;2022-07-06T11:46:27;97083.78;;;22.47;43.64
4012;BME280;2020;48.682;9.024;2022-07-06T11:48:58;97084.47;;;22.36;44.32
4012;BME280;2020;48.682;9.024;2022-07-06T11:51:25;97087.47;;;22.46;44.35
4012;BME280;2020;48.682;9.024;2022-07-06T11:53:56;97093.38;;;22.48;44.52
4012;BME280;2020;48.682;9.024;2022-07-06T11:56:22;97095.16;;;22.55;44.60
4012;BME280;2020;48.682;9.024;2022-07-06T11:58:51;97089.41;;;23.27;43.40
4012;BME280;2020;48.682;9.024;2022-07-06T12:01:17;97080.25;;;23.42;43.25
4012;BME280;2020;48.682;9.024;2022-07-06T12:03:43;97080.81;;;23.44;43.50
4012;BME280;2020;48.682;9.024;2022-07-06T12:06:15;97079.25;;;23.85;42.02
4012;BME280;2020;48.682;9.024;2022-07-06T12:08:45;97076.22;;;23.81;41.65
4012;BME280;2020;48.682;9.024;2022-07-06T12:11:11;97074.16;;;24.02;41.87
4012;BME280;2020;48.682;9.024;2022-07-06T12:13:41;97075.84;;;23.97;40.73
4012;BME280;2020;48.682;9.024;2022-07-06T12:16:14;97071.84;;;24.06;41.96
4012;BME280;2020;48.682;9.024;2022-07-06T12:18:42;97073.25;;;24.20;41.85
4012;BME280;2020;48.682;9.024;2022-07-06T12:21:09;97068.66;;;24.51;40.13
4012;BME280;2020;48.682;9.024;2022-07-06T12:23:42;97065.44;;;24.61;39.52
4012;BME280;2020;48.682;9.024;2022-07-06T12:26:08;97066.03;;;24.39;39.63
4012;BME280;2020;48.682;9.024;2022-07-06T12:28:34;97071.31;;;24.16;40.71
4012;BME280;2020;48.682;9.024;2022-07-06T12:30:59;97066.88;;;23.79;40.80
4012;BME280;2020;48.682;9.024;2022-07-06T12:33:25;97078.66;;;22.97;42.26
4012;BME280;2020;48.682;9.024;2022-07-06T12:35:52;97071.78;;;23.07;43.31
4012;BME280;2020;48.682;9.024;2022-07-06T12:38:26;97072.66;;;22.83;42.85
4012;BME280;2020;48.682;9.024;2022-07-06T12:40:53;97073.34;;;22.97;43.03
4012;BME280;2020;48.682;9.024;2022-07-06T12:43:39;97067.84;;;23.35;41.59
4012;BME280;2020;48.682;9.024;2022-07-06T12:46:43;97064.28;;;23.23;42.98
4012;BME280;2020;48.682;9.024;2022-07-06T12:49:22;97075.06;;;23.47;41.91
4012;BME280;2020;48.682;9.024;2022-07-06T12:54:15;97062.47;;;23.73;40.91
4012;BME280;2020;48.682;9.024;2022-07-06T12:57:02;97067.84;;;23.35;41.89
4012;BME280;2020;48.682;9.024;2022-07-06T12:59:29;97070.19;;;23.74;42.02
4012;BME280;2020;48.682;9.024;2022-07-06T13:01:55;97067.91;;;23.78;42.06
4012;BME280;2020;48.682;9.024;2022-07-06T13:04:24;97067.91;;;23.78;41.85
4012;BME280;2020;48.682;9.024;2022-07-06T13:06:50;97070.81;;;24.07;41.46
4012;BME280;2020;48.682;9.024;2022-07-06T13:09:16;97066.81;;;24.40;40.87
4012;BME280;2020;48.682;9.024;2022-07-06T13:11:41;97057.91;;;24.34;39.14
4012;BME280;2020;48.682;9.024;2022-07-06T13:14:07;97058.88;;;24.88;38.83
4012;BME280;2020;48.682;9.024;2022-07-06T13:16:34;97064.06;;;25.06;38.59
4012;BME280;2020;48.682;9.024;2022-07-06T13:19:00;97053.19;;;24.72;38.71
4012;BME280;2020;48.682;9.024;2022-07-06T13:21:26;97066.50;;;24.72;38.21
4012;BME280;2020;48.682;9.024;2022-07-06T13:23:51;97066.88;;;24.88;38.44
4012;BME280;2020;48.682;9.024;2022-07-06T13:26:16;97065.72;;;24.84;38.25
4012;BME280;2020;48.682;9.024;2022-07-06T13:28:42;97063.13;;;24.41;38.45
4012;BME280;2020;48.682;9.024;2022-07-06T13:31:07;97063.78;;;24.24;39.50
4012;BME280;2020;48.682;9.024;2022-07-06T13:33:32;97046.22;;;24.23;39.47